Time;durP1;ratioP1;P1;durP2;ratioP2;P2;SDS_P1;SDS_P2;PMS_P1;PMS_P2;Temp;Humidity;BMP_temperature;BMP_pressure;BME280_temperature;BME280_humidity;BME280_pressure;Samples;Min_cycle;Max_cycle;Signal;HPM_P1;HPM_P2
2022/02/28 00:00:31;;;;;;;11.10;5.23;;;2.20;95.90;;;;;;4177533;28;20262;-84
2022/02/28 00:02:32;;;;;;;10.13;5.87;;;2.10;96.20;;;;;;4175985;28;20274;-72
2022/02/28 00:04:33;;;;;;;8.13;3.97;;;2.10;96.30;;;;;;4176362;28;20347;-48
2022/02/28 00:06:34;;;;;;;8.70;4.57;;;2.10;96.20;;;;;;4162427;28;21019;-74
2022/02/28 00:08:35;;;;;;;9.03;3.80;;;2.10;95.80;;;;;;4173795;28;20340;-47
2022/02/28 00:10:37;;;;;;;10.30;3.90;;;2.10;95.60;;;;;;4164538;28;20376;-63
2022/02/28 00:12:38;;;;;;;8.80;4.43;;;2.10;95.60;;;;;;4171602;28;20344;-46
2022/02/28 00:14:39;;;;;;;9.63;3.90;;;2.10;96.10;;;;;;4173783;28;20262;-57
2022/02/28 00:16:40;;;;;;;8.87;4.37;;;2.10;95.80;;;;;;4175564;28;20773;-58
2022/02/28 00:18:41;;;;;;;9.83;4.57;;;2.00;96.20;;;;;;4175405;28;20263;-51
2022/02/28 00:20:42;;;;;;;16.00;4.17;;;2.00;96.80;;;;;;4174619;28;20730;-71
2022/02/28 00:22:44;;;;;;;8.57;4.33;;;1.90;96.70;;;;;;4175220;28;20356;-62
2022/02/28 00:24:45;;;;;;;8.73;4.37;;;1.80;96.40;;;;;;4174350;28;20274;-71
2022/02/28 00:26:47;;;;;;;11.03;4.70;;;1.80;96.90;;;;;;4175961;28;20287;-53
2022/02/28 00:28:48;;;;;;;12.33;5.37;;;1.70;97.20;;;;;;4172858;28;20274;-71
2022/02/28 00:30:49;;;;;;;13.63;4.93;;;1.60;98.00;;;;;;4174730;28;20292;-58
2022/02/28 00:32:50;;;;;;;13.10;4.77;;;1.60;98.30;;;;;;4174218;28;20317;-66
2022/02/28 00:34:52;;;;;;;9.73;4.50;;;1.60;98.50;;;;;;4176493;28;20266;-70
2022/02/28 00:36:53;;;;;;;10.73;5.50;;;1.60;98.70;;;;;;4175177;28;20286;-71
2022/02/28 00:38:54;;;;;;;7.70;3.90;;;1.50;98.70;;;;;;4176715;28;20331;-78
2022/02/28 00:40:55;;;;;;;8.87;4.53;;;1.60;98.50;;;;;;4174477;28;20270;-79
2022/02/28 00:42:56;;;;;;;8.20;4.10;;;1.60;98.50;;;;;;4176084;28;20312;-61
2022/02/28 00:44:58;;;;;;;11.10;4.90;;;1.60;98.40;;;;;;4174807;28;20262;-78
2022/02/28 00:46:59;;;;;;;12.00;4.77;;;1.60;98.20;;;;;;4170823;28;20323;-72
2022/02/28 00:49:00;;;;;;;7.90;4.50;;;1.60;98.10;;;;;;4167851;28;20262;-71
2022/02/28 00:51:01;;;;;;;10.87;5.37;;;1.60;98.40;;;;;;4162730;28;20300;-56
2022/02/28 00:53:03;;;;;;;19.43;6.07;;;1.70;98.50;;;;;;4175344;28;20262;-48
2022/02/28 00:55:05;;;;;;;12.23;4.93;;;1.70;98.70;;;;;;4169495;28;20663;-41
2022/02/28 00:57:06;;;;;;;9.30;4.60;;;1.70;98.50;;;;;;4176316;28;20926;-62
2022/02/28 00:59:07;;;;;;;14.37;7.37;;;1.70;98.40;;;;;;4175577;28;20340;-88
2022/02/28 01:01:08;;;;;;;11.20;5.53;;;1.70;98.60;;;;;;4171429;28;20356;-51
2022/02/28 01:03:09;;;;;;;8.57;5.03;;;1.70;98.50;;;;;;4169654;28;20315;-82
2022/02/28 01:05:12;;;;;;;12.53;5.13;;;1.70;98.40;;;;;;4176887;28;20274;-60
2022/02/28 01:07:13;;;;;;;13.63;5.47;;;1.60;98.30;;;;;;4174454;28;20266;-57
2022/02/28 01:09:14;;;;;;;12.53;5.10;;;1.60;98.30;;;;;;4176466;28;20772;-65
2022/02/28 01:11:15;;;;;;;11.43;6.07;;;1.70;98.50;;;;;;4175304;28;20738;-87
2022/02/28 01:13:17;;;;;;;17.30;8.07;;;1.60;98.50;;;;;;4175586;28;20822;-64
2022/02/28 01:15:20;;;;;;;13.50;6.97;;;1.70;98.70;;;;;;4173366;28;20861;-67
2022/02/28 01:17:22;;;;;;;15.07;7.10;;;1.70;99.00;;;;;;4175124;28;20297;-84
2022/02/28 01:19:24;;;;;;;12.70;6.30;;;1.70;99.10;;;;;;4532266;22;20708;-81
2022/02/28 01:21:25;;;;;;;20.10;7.27;;;1.70;99.10;;;;;;4164903;28;21092;-66
2022/02/28 01:23:26;;;;;;;17.27;7.63;;;1.70;99.20;;;;;;4160570;28;20338;-53
2022/02/28 01:25:27;;;;;;;16.63;6.77;;;1.70;99.30;;;;;;4170338;28;20262;-62
2022/02/28 01:27:29;;;;;;;12.03;6.20;;;1.70;99.30;;;;;;4174331;28;20305;-41
2022/02/28 01:29:30;;;;;;;10.40;5.53;;;1.60;99.10;;;;;;4169232;28;20807;-62
2022/02/28 01:31:31;;;;;;;17.97;7.93;;;1.60;99.20;;;;;;4171405;28;20270;-87
2022/02/28 01:33:35;;;;;;;16.23;7.27;;;1.50;99.40;;;;;;4175078;28;20275;-57
2022/02/28 01:35:37;;;;;;;11.17;5.37;;;1.50;99.60;;;;;;4174139;28;20812;-54
2022/02/28 01:37:39;;;;;;;14.93;7.63;;;1.50;99.70;;;;;;4175567;28;20293;-48
2022/02/28 01:39:44;;;;;;;14.27;6.50;;;1.50;99.70;;;;;;4173812;28;20316;-54
2022/02/28 01:41:45;;;;;;;12.17;5.57;;;1.50;99.90;;;;;;4174314;28;20270;-72
2022/02/28 01:43:46;;;;;;;10.17;4.77;;;1.50;99.90;;;;;;4160784;28;20329;-89
2022/02/28 01:45:47;;;;;;;9.07;4.50;;;1.60;99.90;;;;;;4163804;28;20328;-50
2022/02/28 01:47:50;;;;;;;10.17;4.30;;;1.60;99.90;;;;;;4160161;28;20285;-68
2022/02/28 01:49:51;;;;;;;9.67;4.50;;;1.70;99.90;;;;;;4174150;28;20274;-68
2022/02/28 01:51:53;;;;;;;10.77;4.20;;;1.70;99.90;;;;;;4164907;28;20270;-55
2022/02/28 01:53:54;;;;;;;8.67;4.00;;;1.70;99.90;;;;;;4163519;28;20267;-56
2022/02/28 01:55:55;;;;;;;9.17;3.97;;;1.70;99.90;;;;;;4168425;28;20396;-66
2022/02/28 01:57:56;;;;;;;8.73;3.87;;;1.70;99.90;;;;;;4174625;28;20294;-65
2022/02/28 01:59:57;;;;;;;6.67;3.63;;;1.70;99.90;;;;;;4158946;28;20262;-47
2022/02/28 02:01:59;;;;;;;8.00;3.83;;;1.60;99.90;;;;;;4159416;28;20262;-48
2022/02/28 02:04:00;;;;;;;7.27;4.03;;;1.70;99.90;;;;;;4161094;28;20346;-67
2022/02/28 02:06:02;;;;;;;10.33;4.10;;;1.60;99.90;;;;;;4156913;28;20333;-64
2022/02/28 02:08:08;;;;;;;14.70;4.17;;;1.60;99.90;;;;;;4160497;28;20279;-69
2022/02/28 02:10:12;;;;;;;11.40;4.90;;;1.60;99.90;;;;;;4173592;28;20278;-77
2022/02/28 02:12:13;;;;;;;12.37;6.20;;;1.60;99.90;;;;;;4165335;28;20325;-49
2022/02/28 02:14:14;;;;;;;15.17;7.97;;;1.50;99.90;;;;;;4175563;28;20312;-63
2022/02/28 02:16:16;;;;;;;17.87;10.33;;;1.50;99.90;;;;;;4178122;28;20258;-62
2022/02/28 02:18:17;;;;;;;34.40;16.57;;;1.50;99.90;;;;;;4177013;28;20302;-64
2022/02/28 02:20:18;;;;;;;21.70;10.87;;;1.50;99.90;;;;;;4178124;28;20289;-80
2022/02/28 02:22:21;;;;;;;18.20;8.87;;;1.40;99.90;;;;;;4173706;28;20342;-59
2022/02/28 02:24:22;;;;;;;20.47;8.63;;;1.40;99.90;;;;;;4175942;28;20278;-45
2022/02/28 02:26:24;;;;;;;14.20;6.10;;;1.40;99.90;;;;;;4177540;28;20331;-56
2022/02/28 02:28:25;;;;;;;13.33;6.33;;;1.30;99.90;;;;;;4161676;28;20275;-43
2022/02/28 02:30:27;;;;;;;17.83;7.63;;;1.30;99.90;;;;;;4173561;28;20274;-47
2022/02/28 02:32:28;;;;;;;13.87;7.13;;;1.40;99.90;;;;;;4162236;28;20333;-78
2022/02/28 02:34:29;;;;;;;18.43;8.27;;;1.40;99.90;;;;;;4159926;28;20287;-66
2022/02/28 02:36:30;;;;;;;15.33;7.53;;;1.40;99.90;;;;;;4160764;28;20678;-44
2022/02/28 02:38:34;;;;;;;21.97;9.07;;;1.40;99.90;;;;;;4160983;28;20290;-61
2022/02/28 02:40:35;;;;;;;22.97;9.53;;;1.40;99.90;;;;;;4160484;28;20376;-65
2022/02/28 02:42:36;;;;;;;21.53;9.87;;;1.40;99.90;;;;;;4161043;28;20308;-79
2022/02/28 02:44:37;;;;;;;22.00;10.07;;;1.40;99.90;;;;;;4167164;28;20282;-59
2022/02/28 02:46:50;;;;;;;19.03;9.97;;;1.40;99.90;;;;;;4178246;28;20684;-87
2022/02/28 02:48:51;;;;;;;18.33;8.73;;;1.40;99.90;;;;;;4172783;28;20717;-73
2022/02/28 02:50:53;;;;;;;21.57;10.90;;;1.40;99.90;;;;;;4175147;28;20324;-71
2022/02/28 02:52:54;;;;;;;21.53;10.03;;;1.40;99.90;;;;;;4164742;28;20266;-88
2022/02/28 02:54:56;;;;;;;13.57;7.83;;;1.40;99.90;;;;;;4177009;28;20316;-75
2022/02/28 02:56:57;;;;;;;14.43;7.00;;;1.40;99.90;;;;;;4158444;28;20267;-89
2022/02/28 02:58:58;;;;;;;21.40;8.00;;;1.40;99.90;;;;;;4161034;28;20723;-54
2022/02/28 03:00:59;;;;;;;17.80;7.07;;;1.30;99.90;;;;;;4171750;28;20274;-51
2022/02/28 03:03:00;;;;;;;18.40;6.37;;;1.30;99.90;;;;;;4177213;28;20266;-65
2022/02/28 03:05:02;;;;;;;19.67;6.97;;;1.20;99.90;;;;;;4176501;28;20266;-56
2022/02/28 03:07:17;;;;;;;21.67;7.93;;;1.20;99.90;;;;;;4177212;28;20270;-39
2022/02/28 03:09:18;;;;;;;9.40;5.20;;;1.00;99.90;;;;;;4163907;28;20293;-45
2022/02/28 03:11:19;;;;;;;10.20;4.47;;;0.90;99.90;;;;;;4163509;28;20863;-93
2022/02/28 03:13:21;;;;;;;12.53;4.60;;;0.60;99.90;;;;;;4161490;28;20781;-85
2022/02/28 03:15:23;;;;;;;10.77;5.17;;;0.50;99.90;;;;;;4160620;28;20286;-82
2022/02/28 03:17:24;;;;;;;11.27;5.23;;;0.40;99.90;;;;;;4160020;28;20422;-77
2022/02/28 03:19:25;;;;;;;12.87;5.60;;;0.30;99.90;;;;;;4159209;28;20325;-78
2022/02/28 03:21:27;;;;;;;11.80;4.60;;;0.20;99.90;;;;;;4161419;28;20333;-67
2022/02/28 03:23:28;;;;;;;9.47;4.93;;;0.20;99.90;;;;;;4241561;22;20302;-77
2022/02/28 03:25:29;;;;;;;12.83;5.13;;;0.20;99.90;;;;;;4159392;28;20251;-77
2022/02/28 03:27:33;;;;;;;11.73;4.90;;;0.20;99.90;;;;;;4160342;28;20738;-43
2022/02/28 03:29:34;;;;;;;9.83;4.97;;;0.30;99.90;;;;;;4160543;28;20282;-67
2022/02/28 03:31:35;;;;;;;9.63;5.27;;;0.30;99.90;;;;;;4160744;28;20332;-55
2022/02/28 03:33:36;;;;;;;13.57;4.67;;;0.30;99.90;;;;;;4168740;28;20270;-72
2022/02/28 03:35:38;;;;;;;15.23;5.40;;;0.40;99.90;;;;;;4165523;28;20758;-59
2022/02/28 03:37:39;;;;;;;9.03;5.57;;;0.40;99.90;;;;;;4177681;28;21173;-72
2022/02/28 03:39:40;;;;;;;11.10;6.00;;;0.40;99.90;;;;;;4171201;28;20267;-63
2022/02/28 03:41:41;;;;;;;16.03;6.90;;;0.50;99.90;;;;;;4160469;28;20689;-78
2022/02/28 03:43:42;;;;;;;13.33;6.53;;;0.50;99.90;;;;;;4165588;28;20331;-51
2022/02/28 03:45:44;;;;;;;18.63;5.53;;;0.50;99.90;;;;;;4159482;28;20349;-56
2022/02/28 03:47:45;;;;;;;14.90;5.20;;;0.40;99.90;;;;;;4176234;28;20327;-47
2022/02/28 03:49:46;;;;;;;13.40;5.90;;;0.40;99.90;;;;;;4160594;28;20262;-49
2022/02/28 03:51:47;;;;;;;14.57;5.10;;;0.40;99.90;;;;;;4159633;28;20263;-82
2022/02/28 03:53:48;;;;;;;11.40;6.07;;;0.30;99.90;;;;;;4161274;28;20813;-52
2022/02/28 03:55:50;;;;;;;14.17;5.10;;;0.30;99.90;;;;;;4160898;28;20259;-72
2022/02/28 03:57:51;;;;;;;12.30;6.33;;;0.20;99.90;;;;;;4160582;28;20360;-78
2022/02/28 03:59:52;;;;;;;11.70;5.00;;;0.20;99.90;;;;;;4179199;28;20700;-67
2022/02/28 04:01:53;;;;;;;10.07;5.23;;;0.30;99.90;;;;;;4181389;28;20315;-69
2022/02/28 04:03:54;;;;;;;14.10;5.67;;;0.20;99.90;;;;;;4176008;28;20278;-67
2022/02/28 04:05:55;;;;;;;9.60;4.73;;;0.30;99.90;;;;;;4178396;28;20649;-76
2022/02/28 04:07:56;;;;;;;14.57;5.43;;;0.20;99.90;;;;;;4166178;28;20281;-68
2022/02/28 04:09:58;;;;;;;9.40;4.90;;;0.30;99.90;;;;;;4185457;28;20278;-65
2022/02/28 04:11:59;;;;;;;10.50;4.20;;;0.30;99.90;;;;;;4166768;28;20715;-85
2022/02/28 04:14:00;;;;;;;8.20;4.70;;;0.30;99.90;;;;;;4191873;28;20878;-66
2022/02/28 04:16:01;;;;;;;9.10;4.70;;;0.30;99.90;;;;;;4193402;28;20273;-67
2022/02/28 04:18:02;;;;;;;9.03;4.87;;;0.30;99.90;;;;;;4192330;28;20791;-67
2022/02/28 04:20:04;;;;;;;11.77;5.73;;;0.30;99.90;;;;;;4193357;28;20394;-64
2022/02/28 04:22:06;;;;;;;13.57;5.83;;;0.30;99.90;;;;;;4182909;28;20266;-75
2022/02/28 04:24:07;;;;;;;11.50;5.87;;;0.30;99.90;;;;;;4175617;28;20297;-67
2022/02/28 04:26:08;;;;;;;8.77;5.30;;;0.30;99.90;;;;;;4174657;28;20680;-59
2022/02/28 04:28:09;;;;;;;15.27;5.73;;;0.30;99.90;;;;;;4174922;28;20279;-50
2022/02/28 04:30:11;;;;;;;13.70;5.37;;;0.30;99.90;;;;;;4174091;28;20590;-67
2022/02/28 04:32:13;;;;;;;9.47;5.10;;;0.20;99.90;;;;;;4175276;28;20261;-54
2022/02/28 04:34:14;;;;;;;12.40;5.73;;;0.20;99.90;;;;;;4180750;28;20274;-63
2022/02/28 04:36:15;;;;;;;12.33;6.27;;;0.10;99.90;;;;;;4173187;28;20282;-67
2022/02/28 04:38:16;;;;;;;13.07;7.00;;;0.00;99.90;;;;;;4174568;28;20850;-75
2022/02/28 04:40:17;;;;;;;13.40;6.23;;;-0.10;99.90;;;;;;4174773;28;20688;-55
2022/02/28 04:42:19;;;;;;;11.87;5.90;;;-0.10;99.90;;;;;;4176032;28;20269;-46
2022/02/28 04:44:20;;;;;;;10.23;5.50;;;-0.10;99.90;;;;;;4169168;28;20259;-86
2022/02/28 04:46:22;;;;;;;13.70;5.47;;;-0.10;99.90;;;;;;4159082;28;20283;-64
2022/02/28 04:48:23;;;;;;;9.90;5.40;;;-0.10;99.90;;;;;;4165395;28;20273;-54
2022/02/28 04:50:24;;;;;;;10.33;5.33;;;-0.10;99.90;;;;;;4192502;28;20767;-81
2022/02/28 04:52:25;;;;;;;12.83;6.93;;;-0.10;99.90;;;;;;4183365;28;20258;-65
2022/02/28 04:54:26;;;;;;;16.53;7.80;;;-0.10;99.90;;;;;;4176842;28;20808;-65
2022/02/28 04:56:27;;;;;;;15.47;7.23;;;-0.10;99.90;;;;;;4170469;28;20331;-62
2022/02/28 04:58:28;;;;;;;13.03;6.40;;;-0.10;99.90;;;;;;4175886;28;20694;-66
2022/02/28 05:00:30;;;;;;;10.93;7.03;;;-0.10;99.90;;;;;;4170982;28;20734;-77
2022/02/28 05:02:31;;;;;;;12.13;6.97;;;-0.10;99.90;;;;;;4174534;28;20332;-68
2022/02/28 05:04:32;;;;;;;11.83;6.30;;;-0.10;99.90;;;;;;4176646;28;20266;-62
2022/02/28 05:06:34;;;;;;;13.47;6.90;;;-0.10;99.90;;;;;;4176352;28;20363;-73
2022/02/28 05:08:36;;;;;;;16.30;6.27;;;-0.10;99.90;;;;;;4186548;28;20330;-58
2022/02/28 05:10:37;;;;;;;11.97;6.53;;;-0.10;99.90;;;;;;4157806;28;20295;-57
2022/02/28 05:12:38;;;;;;;12.53;5.97;;;-0.10;99.90;;;;;;4173215;28;20777;-75
2022/02/28 05:14:39;;;;;;;14.60;6.00;;;0.00;99.90;;;;;;4169105;28;20278;-76
2022/02/28 05:16:41;;;;;;;9.53;5.73;;;0.00;99.90;;;;;;4174120;28;20270;-71
2022/02/28 05:18:42;;;;;;;11.53;5.97;;;0.00;99.90;;;;;;4168952;28;20306;-57
2022/02/28 05:20:45;;;;;;;12.07;5.83;;;0.00;99.90;;;;;;4173729;28;20278;-57
2022/02/28 05:22:46;;;;;;;17.10;6.90;;;0.10;99.90;;;;;;4174097;28;20680;-46
2022/02/28 05:24:47;;;;;;;13.93;6.27;;;0.10;99.90;;;;;;4174490;28;20262;-59
2022/02/28 05:26:49;;;;;;;12.33;6.10;;;0.10;99.90;;;;;;4170282;28;20653;-78
2022/02/28 05:28:50;;;;;;;16.63;7.57;;;0.10;99.90;;;;;;4166001;28;20333;-56
2022/02/28 05:30:51;;;;;;;12.13;5.53;;;0.10;99.90;;;;;;4158034;28;20707;-65
2022/02/28 05:33:35;;;;;;;20.30;7.57;;;0.10;99.90;;;;;;4169481;28;20258;-69
2022/02/28 05:35:36;;;;;;;11.70;6.87;;;0.10;99.90;;;;;;4171348;28;20843;-47
2022/02/28 05:37:38;;;;;;;12.80;5.97;;;0.20;99.90;;;;;;4163104;28;20327;-61
2022/02/28 05:39:39;;;;;;;13.13;6.17;;;0.10;99.90;;;;;;4163446;28;20336;-58
2022/02/28 05:41:40;;;;;;;12.87;6.37;;;0.20;99.90;;;;;;4159266;28;20263;-75
2022/02/28 05:43:42;;;;;;;12.63;6.33;;;0.20;99.90;;;;;;4165879;28;20984;-49
2022/02/28 05:45:44;;;;;;;15.93;5.77;;;0.20;99.90;;;;;;4172374;28;20335;-54
2022/02/28 05:47:45;;;;;;;12.13;6.23;;;0.20;99.90;;;;;;4161142;28;20266;-51
2022/02/28 05:49:46;;;;;;;15.50;6.40;;;0.20;99.90;;;;;;4353820;23;20306;-59
2022/02/28 05:51:47;;;;;;;17.33;6.80;;;0.20;99.90;;;;;;4160347;28;20290;-69
2022/02/28 05:53:48;;;;;;;16.03;6.77;;;0.20;99.90;;;;;;4160375;28;20259;-62
2022/02/28 05:55:49;;;;;;;14.27;6.50;;;0.30;99.90;;;;;;4162860;28;20263;-50
2022/02/28 05:57:51;;;;;;;14.13;5.80;;;0.30;99.90;;;;;;4163955;28;20364;-64
2022/02/28 05:59:52;;;;;;;14.00;6.27;;;0.30;99.90;;;;;;4162964;28;20424;-60
2022/02/28 06:01:53;;;;;;;15.03;5.50;;;0.30;99.90;;;;;;4159793;28;20274;-81
2022/02/28 06:03:54;;;;;;;20.33;6.90;;;0.40;99.90;;;;;;4161604;28;20271;-68
2022/02/28 06:05:56;;;;;;;21.20;6.67;;;0.40;99.90;;;;;;4158521;28;20266;-48
2022/02/28 06:07:57;;;;;;;15.63;7.17;;;0.40;99.90;;;;;;4162353;28;20826;-75
2022/02/28 06:09:58;;;;;;;11.70;6.33;;;0.40;99.90;;;;;;4161126;28;20262;-78
2022/02/28 06:11:59;;;;;;;14.97;6.67;;;0.40;99.90;;;;;;4161515;28;20271;-87
2022/02/28 06:14:01;;;;;;;12.87;5.47;;;0.40;99.90;;;;;;4160636;28;20774;-71
2022/02/28 06:16:02;;;;;;;10.37;5.37;;;0.40;99.90;;;;;;4161509;28;20279;-42
2022/02/28 06:18:03;;;;;;;13.07;5.83;;;0.40;99.90;;;;;;4160097;28;20366;-86
2022/02/28 06:20:06;;;;;;;14.60;6.30;;;0.40;99.90;;;;;;4160207;28;20275;-64
2022/02/28 06:22:07;;;;;;;13.87;6.43;;;0.40;99.90;;;;;;4159785;28;20333;-67
2022/02/28 06:24:08;;;;;;;13.70;6.10;;;0.40;99.90;;;;;;4158660;28;20263;-58
2022/02/28 06:26:10;;;;;;;19.10;7.13;;;0.40;99.90;;;;;;4159433;28;20340;-57
2022/02/28 06:28:12;;;;;;;13.97;6.67;;;0.50;99.90;;;;;;4158365;28;20278;-59
2022/02/28 06:30:14;;;;;;;15.53;6.27;;;0.50;99.90;;;;;;4159923;28;20274;-87
2022/02/28 06:32:15;;;;;;;12.10;5.90;;;0.50;99.90;;;;;;4156320;28;20352;-86
2022/02/28 06:34:16;;;;;;;13.83;5.93;;;0.50;99.90;;;;;;4158110;28;20271;-54
2022/02/28 06:36:17;;;;;;;12.20;5.87;;;0.60;99.90;;;;;;4157771;28;20267;-62
2022/02/28 06:38:20;;;;;;;12.23;5.93;;;0.70;99.90;;;;;;4150815;28;20303;-83
2022/02/28 06:40:21;;;;;;;15.00;6.53;;;0.80;99.90;;;;;;4147336;28;20267;-53
2022/02/28 06:42:22;;;;;;;13.93;6.03;;;0.90;99.90;;;;;;4162549;28;20557;-47
2022/02/28 06:44:24;;;;;;;13.83;6.13;;;0.90;99.90;;;;;;4158990;28;20279;-57
2022/02/28 06:46:26;;;;;;;11.60;6.47;;;0.90;99.90;;;;;;4160720;28;20386;-70
2022/02/28 06:48:28;;;;;;;23.00;8.27;;;0.90;99.90;;;;;;4159071;28;20283;-53
2022/02/28 06:50:29;;;;;;;25.73;8.33;;;0.80;99.90;;;;;;4155169;28;20902;-83
2022/02/28 06:52:30;;;;;;;25.63;9.17;;;0.80;99.90;;;;;;4142951;28;20267;-67
2022/02/28 06:54:32;;;;;;;32.97;10.43;;;0.80;99.90;;;;;;4148246;28;20279;-68
2022/02/28 06:56:33;;;;;;;53.43;17.20;;;0.90;99.90;;;;;;4152901;28;20949;-68
2022/02/28 06:58:35;;;;;;;46.77;19.40;;;0.90;99.90;;;;;;4148567;28;20336;-69
2022/02/28 07:00:37;;;;;;;39.23;15.20;;;0.90;99.90;;;;;;4145800;28;20283;-60
2022/02/28 07:02:38;;;;;;;45.00;12.43;;;0.90;99.90;;;;;;4145580;28;20303;-69
2022/02/28 07:04:39;;;;;;;36.83;13.83;;;1.00;99.90;;;;;;4150841;28;20276;-63
2022/02/28 07:06:40;;;;;;;23.60;10.47;;;1.10;99.90;;;;;;4153453;28;20297;-69
2022/02/28 07:08:42;;;;;;;29.33;9.23;;;1.20;99.90;;;;;;4152338;28;20741;-68
2022/02/28 07:10:44;;;;;;;30.10;10.73;;;1.20;99.90;;;;;;4154028;28;20320;-67
2022/02/28 07:12:45;;;;;;;34.67;10.43;;;1.30;99.90;;;;;;4151127;28;20328;-56
2022/02/28 07:14:47;;;;;;;29.73;12.40;;;1.40;99.90;;;;;;4151094;28;20287;-69
2022/02/28 07:16:48;;;;;;;37.53;14.37;;;1.50;99.90;;;;;;4153165;28;20336;-70
2022/02/28 07:18:49;;;;;;;20.83;9.10;;;1.60;99.90;;;;;;4148528;28;20299;-69
2022/02/28 07:20:50;;;;;;;17.90;6.60;;;1.70;99.90;;;;;;4148277;28;20422;-49
2022/02/28 07:22:52;;;;;;;24.60;8.07;;;1.70;99.90;;;;;;4155189;28;20333;-64
2022/02/28 07:24:53;;;;;;;24.83;9.73;;;1.80;99.90;;;;;;4154011;28;20316;-71
2022/02/28 07:26:54;;;;;;;24.77;9.67;;;1.80;99.90;;;;;;4151376;28;20270;-62
2022/02/28 07:28:55;;;;;;;27.40;11.97;;;1.80;99.90;;;;;;4147581;28;20322;-62
2022/02/28 07:30:57;;;;;;;24.73;10.67;;;1.80;99.90;;;;;;4148210;28;20810;-50
2022/02/28 07:33:00;;;;;;;17.23;7.90;;;1.80;99.90;;;;;;4150558;28;20270;-63
2022/02/28 07:35:01;;;;;;;21.30;8.87;;;1.80;99.90;;;;;;4158385;28;20352;-42
2022/02/28 07:37:03;;;;;;;16.07;7.07;;;1.80;99.90;;;;;;4144169;28;20271;-55
2022/02/28 07:39:04;;;;;;;22.83;8.27;;;1.90;99.90;;;;;;4155373;28;20294;-45
2022/02/28 07:41:06;;;;;;;13.73;6.27;;;2.00;99.90;;;;;;4154716;28;20275;-63
2022/02/28 07:43:08;;;;;;;12.17;5.80;;;2.10;99.90;;;;;;4148121;28;20333;-48
2022/02/28 07:45:09;;;;;;;14.87;5.73;;;2.20;99.90;;;;;;4150223;28;20336;-44
2022/02/28 07:47:11;;;;;;;11.87;5.60;;;2.30;99.90;;;;;;4158945;28;20312;-63
2022/02/28 07:49:12;;;;;;;13.93;6.27;;;2.40;99.90;;;;;;4158152;28;20279;-94
2022/02/28 07:51:13;;;;;;;14.27;6.27;;;2.50;99.90;;;;;;4158047;28;20332;-47
2022/02/28 07:53:14;;;;;;;15.63;6.63;;;2.50;99.90;;;;;;4156506;28;20813;-52
2022/02/28 07:55:15;;;;;;;19.27;6.30;;;2.60;99.90;;;;;;4155416;28;20333;-58
2022/02/28 07:57:16;;;;;;;14.00;5.70;;;2.50;99.90;;;;;;4158842;28;20279;-58
2022/02/28 07:59:18;;;;;;;15.33;6.53;;;2.50;99.90;;;;;;4157005;28;20644;-61
2022/02/28 08:01:19;;;;;;;16.13;7.83;;;2.50;99.90;;;;;;4158362;28;21092;-65
2022/02/28 08:03:20;;;;;;;15.17;5.50;;;2.50;99.90;;;;;;4158479;28;20842;-93
2022/02/28 08:05:21;;;;;;;14.67;5.77;;;2.50;99.90;;;;;;4158530;28;20325;-73
2022/02/28 08:07:22;;;;;;;9.73;5.57;;;2.50;99.90;;;;;;4159326;28;20678;-91
2022/02/28 08:09:24;;;;;;;11.03;4.83;;;2.60;99.90;;;;;;4160392;28;20274;-70
2022/02/28 08:11:25;;;;;;;20.90;6.23;;;2.70;99.90;;;;;;4158011;28;20321;-68
2022/02/28 08:13:26;;;;;;;16.10;6.43;;;2.80;99.90;;;;;;4160057;28;20348;-82
2022/02/28 08:15:28;;;;;;;16.80;6.33;;;2.80;99.90;;;;;;4152416;28;20689;-86
2022/02/28 08:17:29;;;;;;;11.57;5.70;;;2.80;99.90;;;;;;4152549;28;20279;-71
2022/02/28 08:19:30;;;;;;;8.60;4.23;;;3.00;99.90;;;;;;4145653;28;20294;-88
2022/02/28 08:21:31;;;;;;;13.03;4.50;;;3.10;99.90;;;;;;4156870;28;20773;-55
2022/02/28 08:23:32;;;;;;;5.43;3.30;;;3.20;99.90;;;;;;4153339;28;20267;-53
2022/02/28 08:25:33;;;;;;;3.93;2.90;;;3.30;99.90;;;;;;4147436;28;20268;-46
2022/02/28 08:27:35;;;;;;;6.03;2.70;;;3.30;99.90;;;;;;4141434;28;20734;-55
2022/02/28 08:29:36;;;;;;;5.27;2.70;;;3.30;99.90;;;;;;4140346;28;20279;-42
2022/02/28 08:31:37;;;;;;;5.10;2.10;;;3.30;99.90;;;;;;4141651;28;20325;-55
2022/02/28 08:33:38;;;;;;;3.30;2.43;;;3.30;99.90;;;;;;4139003;28;20695;-51
2022/02/28 08:35:39;;;;;;;8.97;2.80;;;3.30;99.90;;;;;;4140037;28;20333;-65
2022/02/28 08:37:42;;;;;;;5.57;2.87;;;3.30;99.90;;;;;;4140521;28;20279;-62
2022/02/28 08:39:43;;;;;;;6.73;2.00;;;3.50;99.90;;;;;;4141819;28;20299;-74
2022/02/28 08:41:44;;;;;;;3.00;2.57;;;3.60;99.90;;;;;;4140818;28;20675;-56
2022/02/28 08:43:45;;;;;;;4.50;2.23;;;3.70;99.90;;;;;;4140677;28;20279;-51
2022/02/28 08:45:47;;;;;;;4.17;2.17;;;3.90;99.90;;;;;;4145352;28;21290;-69
2022/02/28 08:47:48;;;;;;;5.67;2.87;;;4.00;99.90;;;;;;4158031;28;20321;-51
2022/02/28 08:49:49;;;;;;;3.90;2.00;;;4.10;99.90;;;;;;4206242;22;20315;-64
2022/02/28 08:52:01;;;;;;;;;;;;;;;;;;;;;
2022/02/28 08:54:12;;;;;;;4.33;1.97;;;4.40;99.90;;;;;;4146283;28;20271;-57
2022/02/28 08:56:13;;;;;;;3.10;2.70;;;4.50;99.90;;;;;;4145008;28;20739;-58
2022/02/28 08:58:14;;;;;;;3.83;2.47;;;4.70;99.90;;;;;;4156574;28;20270;-46
2022/02/28 09:00:16;;;;;;;6.90;2.67;;;4.70;99.90;;;;;;4151114;28;20259;-62
2022/02/28 09:02:17;;;;;;;5.43;2.80;;;4.60;99.90;;;;;;4139858;28;20337;-57
2022/02/28 09:04:18;;;;;;;18.83;2.90;;;4.60;98.80;;;;;;4145578;28;20286;-51
2022/02/28 09:06:23;;;;;;;4.60;2.80;;;4.50;98.80;;;;;;4156400;28;20271;-57
2022/02/28 09:08:24;;;;;;;4.70;2.30;;;4.70;99.10;;;;;;4157794;28;20759;-56
2022/02/28 09:10:25;;;;;;;4.23;3.17;;;4.70;98.40;;;;;;4156877;28;20317;-67
2022/02/28 09:12:26;;;;;;;4.13;2.23;;;4.70;98.50;;;;;;4151535;28;20392;-49
2022/02/28 09:14:29;;;;;;;8.47;2.63;;;4.50;96.60;;;;;;4139961;28;20671;-69
2022/02/28 09:16:31;;;;;;;6.37;2.33;;;4.50;96.80;;;;;;4144898;28;20275;-52
2022/02/28 09:18:32;;;;;;;6.77;2.73;;;4.50;96.90;;;;;;4151066;28;20589;-83
2022/02/28 09:20:35;;;;;;;4.87;2.40;;;4.60;96.50;;;;;;4158003;28;20316;-54
2022/02/28 09:22:36;;;;;;;3.63;2.27;;;4.60;96.50;;;;;;4171018;28;20721;-57
2022/02/28 09:24:37;;;;;;;9.27;2.10;;;4.50;95.90;;;;;;4159383;28;20645;-53
2022/02/28 09:26:38;;;;;;;3.77;2.30;;;4.50;95.10;;;;;;4150078;28;20326;-71
2022/02/28 09:28:39;;;;;;;3.80;1.87;;;4.40;93.90;;;;;;4145040;28;20286;-45
2022/02/28 09:30:41;;;;;;;5.30;2.53;;;4.20;92.80;;;;;;4157222;28;20782;-63
2022/02/28 09:32:42;;;;;;;8.03;3.93;;;4.30;92.30;;;;;;4159508;28;20308;-62
2022/02/28 09:37:08;;;;;;;4.53;2.60;;;4.10;91.50;;;;;;4196455;22;20366;-66
2022/02/28 09:39:09;;;;;;;5.00;2.13;;;4.20;92.60;;;;;;4192132;28;20390;-60
2022/02/28 09:43:16;;;;;;;5.00;2.63;;;4.00;92.10;;;;;;4286399;23;20754;-84
2022/02/28 09:45:19;;;;;;;7.17;2.47;;;3.90;92.70;;;;;;4159241;28;20287;-79
2022/02/28 09:47:20;;;;;;;3.67;2.60;;;3.80;93.00;;;;;;4159330;28;20269;-60
2022/02/28 09:51:22;;;;;;;4.40;2.80;;;3.70;93.60;;;;;;4194126;23;20320;-50
2022/02/28 09:53:23;;;;;;;4.70;2.30;;;3.60;93.80;;;;;;4203176;28;20473;-58
2022/02/28 09:55:25;;;;;;;4.33;2.67;;;3.60;94.20;;;;;;4192541;28;20311;-53
2022/02/28 09:57:26;;;;;;;3.93;2.77;;;3.50;94.70;;;;;;4173354;28;20331;-55
2022/02/28 09:59:27;;;;;;;6.63;2.80;;;3.50;94.90;;;;;;4192941;28;20366;-60
2022/02/28 10:01:28;;;;;;;4.80;2.40;;;3.50;95.20;;;;;;4191653;28;20323;-67
2022/02/28 10:03:30;;;;;;;6.50;2.40;;;3.50;94.80;;;;;;4193144;28;20338;-68
2022/02/28 10:05:31;;;;;;;3.73;2.43;;;3.50;94.80;;;;;;4191674;28;20706;-66
2022/02/28 10:07:32;;;;;;;4.10;2.37;;;3.50;95.10;;;;;;4193104;28;20274;-67
2022/02/28 10:09:33;;;;;;;5.23;2.90;;;3.60;94.80;;;;;;4192077;28;20319;-70
2022/02/28 10:11:41;;;;;;;3.67;2.27;;;3.60;93.90;;;;;;4192161;28;20342;-61
2022/02/28 10:13:42;;;;;;;3.63;2.00;;;3.50;94.50;;;;;;4180430;28;20747;-59
2022/02/28 10:15:48;;;;;;;3.20;2.23;;;3.60;94.50;;;;;;4205841;28;20334;-52
2022/02/28 10:17:56;;;;;;;6.23;2.40;;;3.50;94.10;;;;;;4207530;28;20253;-61
2022/02/28 10:20:01;;;;;;;10.67;3.30;;;3.50;93.10;;;;;;4208254;28;20297;-56
2022/02/28 10:22:06;;;;;;;7.00;2.60;;;3.60;93.90;;;;;;4190524;28;20274;-56
2022/02/28 10:24:10;;;;;;;5.30;2.90;;;3.70;93.80;;;;;;4191986;28;20304;-58
2022/02/28 10:26:12;;;;;;;4.07;2.57;;;3.80;93.80;;;;;;4191957;28;20298;-50
2022/02/28 10:28:25;;;;;;;11.30;3.00;;;3.80;92.80;;;;;;4190465;28;20330;-64
2022/02/28 10:30:27;;;;;;;8.50;2.20;;;3.70;91.70;;;;;;4195175;28;20273;-56
2022/02/28 10:32:47;;;;;;;7.07;1.87;;;3.70;90.20;;;;;;4208312;28;20329;-64
2022/02/28 10:37:17;;;;;;;1.70;0.97;;;3.60;84.00;;;;;;4193637;28;20297;-66
2022/02/28 10:39:29;;;;;;;1.37;0.87;;;3.70;81.10;;;;;;4202905;28;20292;-62
2022/02/28 10:41:36;;;;;;;5.47;1.43;;;3.70;84.60;;;;;;4191519;28;20323;-69
2022/02/28 10:43:37;;;;;;;4.53;1.20;;;3.80;83.20;;;;;;4191999;28;21020;-61
2022/02/28 10:45:40;;;;;;;2.27;1.03;;;3.90;80.30;;;;;;4196522;28;20806;-78